sensor_id;sensor_type;location;lat;lon;timestamp;pressure;altitude;pressure_sealevel;temperature;humidity
68986;BME280;56035;37.534;-122.308;2023-02-25T00:00:32;100496.31;;;7.56;100.00
68986;BME280;56035;37.534;-122.308;2023-02-25T00:02:59;100505.44;;;7.50;100.00
68986;BME280;56035;37.534;-122.308;2023-02-25T00:05:26;100511.53;;;7.52;100.00
68986;BME280;56035;37.534;-122.308;2023-02-25T00:07:53;100520.81;;;7.51;93.41
68986;BME280;56035;37.534;-122.308;2023-02-25T00:10:19;100518.06;;;7.51;93.43
68986;BME280;56035;37.534;-122.308;2023-02-25T00:12:45;100518.22;;;7.56;89.37
68986;BME280;56035;37.534;-122.308;2023-02-25T00:15:12;100528.75;;;7.59;92.93
68986;BME280;56035;37.534;-122.308;2023-02-25T00:17:38;100531.88;;;7.63;91.10
68986;BME280;56035;37.534;-122.308;2023-02-25T00:20:08;100536.28;;;7.64;89.21
68986;BME280;56035;37.534;-122.308;2023-02-25T00:22:37;100532.47;;;7.65;89.20
68986;BME280;56035;37.534;-122.308;2023-02-25T00:25:04;100538.34;;;7.68;93.90
68986;BME280;56035;37.534;-122.308;2023-02-25T00:27:30;100536.44;;;7.69;93.97
68986;BME280;56035;37.534;-122.308;2023-02-25T00:29:56;100533.47;;;7.70;97.26
68986;BME280;56035;37.534;-122.308;2023-02-25T00:32:23;100530.72;;;7.70;94.73
68986;BME280;56035;37.534;-122.308;2023-02-25T00:34:49;100539.09;;;7.76;94.53
68986;BME280;56035;37.534;-122.308;2023-02-25T00:37:16;100546.88;;;7.79;90.64
68986;BME280;56035;37.534;-122.308;2023-02-25T00:39:43;100552.56;;;7.77;93.16
68986;BME280;56035;37.534;-122.308;2023-02-25T00:42:17;100547.53;;;7.74;91.48
68986;BME280;56035;37.534;-122.308;2023-02-25T00:44:48;100538.19;;;7.63;90.82
68986;BME280;56035;37.534;-122.308;2023-02-25T00:47:17;100538.47;;;7.55;93.60
68986;BME280;56035;37.534;-122.308;2023-02-25T00:49:47;100545.09;;;7.47;95.29
68986;BME280;56035;37.534;-122.308;2023-02-25T00:52:14;100544.97;;;7.42;97.36
68986;BME280;56035;37.534;-122.308;2023-02-25T00:54:41;100554.75;;;7.32;94.12
68986;BME280;56035;37.534;-122.308;2023-02-25T00:57:07;100557.34;;;7.26;98.42
68986;BME280;56035;37.534;-122.308;2023-02-25T00:59:34;100558.00;;;7.22;100.00
68986;BME280;56035;37.534;-122.308;2023-02-25T01:02:00;100546.94;;;7.10;97.37
68986;BME280;56035;37.534;-122.308;2023-02-25T01:04:26;100532.31;;;6.98;96.75
68986;BME280;56035;37.534;-122.308;2023-02-25T01:06:52;100544.19;;;6.85;99.04
68986;BME280;56035;37.534;-122.308;2023-02-25T01:09:19;100551.25;;;6.74;96.98
68986;BME280;56035;37.534;-122.308;2023-02-25T01:11:46;100556.53;;;6.69;100.00
68986;BME280;56035;37.534;-122.308;2023-02-25T01:14:19;100557.03;;;6.60;98.12
68986;BME280;56035;37.534;-122.308;2023-02-25T01:16:46;100558.13;;;6.52;99.45
68986;BME280;56035;37.534;-122.308;2023-02-25T01:19:19;100565.16;;;6.41;100.00
68986;BME280;56035;37.534;-122.308;2023-02-25T01:21:47;100574.88;;;6.30;100.00
68986;BME280;56035;37.534;-122.308;2023-02-25T01:24:17;100581.44;;;6.23;100.00
68986;BME280;56035;37.534;-122.308;2023-02-25T01:26:49;100579.19;;;6.13;100.00
68986;BME280;56035;37.534;-122.308;2023-02-25T01:29:22;100588.69;;;6.04;100.00
68986;BME280;56035;37.534;-122.308;2023-02-25T01:31:52;100583.91;;;5.93;100.00
68986;BME280;56035;37.534;-122.308;2023-02-25T01:34:19;100594.00;;;5.79;100.00
68986;BME280;56035;37.534;-122.308;2023-02-25T01:36:45;100597.19;;;5.69;100.00
68986;BME280;56035;37.534;-122.308;2023-02-25T01:39:14;100606.25;;;5.63;100.00
68986;BME280;56035;37.534;-122.308;2023-02-25T01:41:41;100596.59;;;5.54;100.00
68986;BME280;56035;37.534;-122.308;2023-02-25T01:44:12;100607.50;;;5.54;100.00
68986;BME280;56035;37.534;-122.308;2023-02-25T01:46:41;100603.72;;;5.61;100.00
68986;BME280;56035;37.534;-122.308;2023-02-25T01:49:12;100602.69;;;5.56;100.00
68986;BME280;56035;37.534;-122.308;2023-02-25T01:51:41;100607.53;;;5.40;100.00
68986;BME280;56035;37.534;-122.308;2023-02-25T01:54:09;100620.56;;;5.32;100.00
68986;BME280;56035;37.534;-122.308;2023-02-25T01:56:39;100614.91;;;5.27;100.00
68986;BME280;56035;37.534;-122.308;2023-02-25T01:59:27;100614.25;;;5.25;100.00
68986;BME280;56035;37.534;-122.308;2023-02-25T02:01:55;100614.91;;;5.20;100.00
68986;BME280;56035;37.534;-122.308;2023-02-25T02:04:22;100615.75;;;5.14;100.00
68986;BME280;56035;37.534;-122.308;2023-02-25T02:06:49;100623.53;;;5.10;100.00
68986;BME280;56035;37.534;-122.308;2023-02-25T02:09:23;100606.72;;;5.07;100.00
68986;BME280;56035;37.534;-122.308;2023-02-25T02:11:50;100630.66;;;4.98;100.00
68986;BME280;56035;37.534;-122.308;2023-02-25T02:14:24;100633.78;;;4.88;100.00
68986;BME280;56035;37.534;-122.308;2023-02-25T02:17:09;100640.28;;;4.81;100.00
68986;BME280;56035;37.534;-122.308;2023-02-25T02:19:52;100627.06;;;4.78;100.00
68986;BME280;56035;37.534;-122.308;2023-02-25T02:34:05;100657.56;;;4.33;100.00
68986;BME280;56035;37.534;-122.308;2023-02-25T02:45:00;100635.63;;;4.07;100.00
68986;BME280;56035;37.534;-122.308;2023-02-25T02:47:38;100635.78;;;3.98;100.00
68986;BME280;56035;37.534;-122.308;2023-02-25T02:50:13;100631.56;;;3.89;100.00
68986;BME280;56035;37.534;-122.308;2023-02-25T02:52:47;100631.53;;;3.83;100.00
68986;BME280;56035;37.534;-122.308;2023-02-25T02:55:23;100653.69;;;3.73;100.00
68986;BME280;56035;37.534;-122.308;2023-02-25T02:57:54;100664.09;;;3.63;100.00
68986;BME280;56035;37.534;-122.308;2023-02-25T03:00:26;100667.16;;;3.53;100.00
68986;BME280;56035;37.534;-122.308;2023-02-25T03:03:02;100671.09;;;3.44;100.00
68986;BME280;56035;37.534;-122.308;2023-02-25T03:05:30;100679.38;;;3.36;100.00
68986;BME280;56035;37.534;-122.308;2023-02-25T03:08:32;100684.34;;;3.25;100.00
68986;BME280;56035;37.534;-122.308;2023-02-25T03:11:00;100680.28;;;3.15;100.00
68986;BME280;56035;37.534;-122.308;2023-02-25T03:13:26;100689.59;;;3.05;100.00
68986;BME280;56035;37.534;-122.308;2023-02-25T03:15:53;100711.31;;;2.99;100.00
68986;BME280;56035;37.534;-122.308;2023-02-25T03:18:25;100698.69;;;2.91;100.00
68986;BME280;56035;37.534;-122.308;2023-02-25T03:20:53;100688.94;;;2.82;100.00
68986;BME280;56035;37.534;-122.308;2023-02-25T03:23:26;100699.94;;;2.74;100.00
68986;BME280;56035;37.534;-122.308;2023-02-25T03:26:24;100714.31;;;2.68;100.00
68986;BME280;56035;37.534;-122.308;2023-02-25T03:28:52;100720.72;;;2.60;100.00
68986;BME280;56035;37.534;-122.308;2023-02-25T03:31:31;100721.47;;;2.54;100.00
68986;BME280;56035;37.534;-122.308;2023-02-25T03:34:27;100707.78;;;2.47;100.00
68986;BME280;56035;37.534;-122.308;2023-02-25T03:37:02;100695.16;;;2.40;100.00
68986;BME280;56035;37.534;-122.308;2023-02-25T03:39:36;100675.38;;;2.31;100.00
68986;BME280;56035;37.534;-122.308;2023-02-25T03:42:05;100687.09;;;2.31;100.00
68986;BME280;56035;37.534;-122.308;2023-02-25T03:44:42;100688.72;;;2.26;100.00
68986;BME280;56035;37.534;-122.308;2023-02-25T03:47:11;100698.25;;;2.22;100.00
68986;BME280;56035;37.534;-122.308;2023-02-25T03:49:55;100698.00;;;2.17;100.00
68986;BME280;56035;37.534;-122.308;2023-02-25T03:52:25;100706.31;;;2.15;100.00
68986;BME280;56035;37.534;-122.308;2023-02-25T03:54:54;100721.34;;;2.11;100.00
68986;BME280;56035;37.534;-122.308;2023-02-25T03:57:22;100705.97;;;2.03;100.00
68986;BME280;56035;37.534;-122.308;2023-02-25T03:59:54;100698.19;;;2.00;100.00
68986;BME280;56035;37.534;-122.308;2023-02-25T04:02:27;100678.34;;;2.00;100.00
68986;BME280;56035;37.534;-122.308;2023-02-25T04:04:55;100701.38;;;2.04;100.00
68986;BME280;56035;37.534;-122.308;2023-02-25T04:07:22;100711.59;;;2.02;100.00
68986;BME280;56035;37.534;-122.308;2023-02-25T04:09:48;100702.59;;;2.01;100.00
68986;BME280;56035;37.534;-122.308;2023-02-25T04:12:14;100706.34;;;2.00;100.00
68986;BME280;56035;37.534;-122.308;2023-02-25T04:14:41;100697.72;;;1.97;100.00
68986;BME280;56035;37.534;-122.308;2023-02-25T04:17:07;100698.28;;;1.92;100.00
68986;BME280;56035;37.534;-122.308;2023-02-25T04:19:37;100692.56;;;1.87;100.00
68986;BME280;56035;37.534;-122.308;2023-02-25T04:22:03;100694.47;;;1.86;100.00
68986;BME280;56035;37.534;-122.308;2023-02-25T04:24:33;100691.66;;;1.80;100.00
68986;BME280;56035;37.534;-122.308;2023-02-25T04:26:59;100695.75;;;1.76;100.00
68986;BME280;56035;37.534;-122.308;2023-02-25T04:29:26;100706.97;;;1.73;100.00
68986;BME280;56035;37.534;-122.308;2023-02-25T04:31:52;100699.56;;;1.67;100.00
68986;BME280;56035;37.534;-122.308;2023-02-25T04:34:19;100718.09;;;1.63;100.00
68986;BME280;56035;37.534;-122.308;2023-02-25T04:36:45;100731.69;;;1.63;100.00
68986;BME280;56035;37.534;-122.308;2023-02-25T04:39:14;100742.75;;;1.61;100.00
68986;BME280;56035;37.534;-122.308;2023-02-25T04:41:41;100747.88;;;1.56;100.00
68986;BME280;56035;37.534;-122.308;2023-02-25T04:44:08;100755.19;;;1.56;100.00
68986;BME280;56035;37.534;-122.308;2023-02-25T04:46:38;100749.56;;;1.57;100.00
68986;BME280;56035;37.534;-122.308;2023-02-25T04:49:07;100759.75;;;1.55;100.00
68986;BME280;56035;37.534;-122.308;2023-02-25T04:51:35;100769.59;;;1.56;100.00
68986;BME280;56035;37.534;-122.308;2023-02-25T04:54:02;100772.31;;;1.56;100.00
68986;BME280;56035;37.534;-122.308;2023-02-25T04:56:28;100765.88;;;1.57;100.00
68986;BME280;56035;37.534;-122.308;2023-02-25T04:58:56;100764.63;;;1.60;100.00
68986;BME280;56035;37.534;-122.308;2023-02-25T05:01:22;100736.56;;;1.68;100.00
68986;BME280;56035;37.534;-122.308;2023-02-25T05:03:50;100725.72;;;1.68;100.00
68986;BME280;56035;37.534;-122.308;2023-02-25T05:06:25;100750.78;;;1.70;100.00
68986;BME280;56035;37.534;-122.308;2023-02-25T05:08:53;100766.66;;;1.81;100.00
68986;BME280;56035;37.534;-122.308;2023-02-25T05:11:20;100759.94;;;1.92;100.00
68986;BME280;56035;37.534;-122.308;2023-02-25T05:13:46;100757.31;;;1.98;100.00
68986;BME280;56035;37.534;-122.308;2023-02-25T05:16:15;100771.66;;;2.07;100.00
68986;BME280;56035;37.534;-122.308;2023-02-25T05:18:42;100768.66;;;2.17;100.00
68986;BME280;56035;37.534;-122.308;2023-02-25T05:21:17;100773.00;;;2.26;100.00
68986;BME280;56035;37.534;-122.308;2023-02-25T05:23:45;100764.72;;;2.34;100.00
68986;BME280;56035;37.534;-122.308;2023-02-25T05:26:13;100764.44;;;2.44;100.00
68986;BME280;56035;37.534;-122.308;2023-02-25T05:28:39;100768.06;;;2.66;100.00
68986;BME280;56035;37.534;-122.308;2023-02-25T05:31:06;100781.63;;;3.17;100.00
68986;BME280;56035;37.534;-122.308;2023-02-25T05:33:34;100774.13;;;3.40;100.00
68986;BME280;56035;37.534;-122.308;2023-02-25T05:36:00;100768.41;;;3.57;100.00
68986;BME280;56035;37.534;-122.308;2023-02-25T05:38:27;100775.66;;;3.71;100.00
68986;BME280;56035;37.534;-122.308;2023-02-25T05:40:53;100780.38;;;3.84;100.00
68986;BME280;56035;37.534;-122.308;2023-02-25T05:43:19;100788.59;;;3.90;100.00
68986;BME280;56035;37.534;-122.308;2023-02-25T05:45:57;100790.16;;;3.99;100.00
68986;BME280;56035;37.534;-122.308;2023-02-25T05:48:24;100787.75;;;4.18;100.00
68986;BME280;56035;37.534;-122.308;2023-02-25T05:50:51;100775.09;;;4.38;100.00
68986;BME280;56035;37.534;-122.308;2023-02-25T05:53:44;100768.25;;;4.56;100.00
68986;BME280;56035;37.534;-122.308;2023-02-25T05:56:13;100767.22;;;4.63;100.00
68986;BME280;56035;37.534;-122.308;2023-02-25T05:58:39;100773.75;;;4.62;100.00
68986;BME280;56035;37.534;-122.308;2023-02-25T06:01:11;100760.31;;;4.67;100.00
68986;BME280;56035;37.534;-122.308;2023-02-25T06:03:39;100763.50;;;4.71;100.00
68986;BME280;56035;37.534;-122.308;2023-02-25T06:06:06;100767.25;;;4.70;100.00
68986;BME280;56035;37.534;-122.308;2023-02-25T06:08:34;100769.16;;;4.69;100.00
68986;BME280;56035;37.534;-122.308;2023-02-25T06:11:00;100772.31;;;4.73;100.00
68986;BME280;56035;37.534;-122.308;2023-02-25T06:13:26;100781.56;;;4.72;100.00
68986;BME280;56035;37.534;-122.308;2023-02-25T06:15:53;100784.69;;;4.69;100.00
68986;BME280;56035;37.534;-122.308;2023-02-25T06:18:19;100763.09;;;4.74;100.00
68986;BME280;56035;37.534;-122.308;2023-02-25T06:20:45;100757.00;;;4.72;100.00
68986;BME280;56035;37.534;-122.308;2023-02-25T06:23:11;100768.09;;;4.70;100.00
68986;BME280;56035;37.534;-122.308;2023-02-25T06:25:38;100780.50;;;4.73;100.00
68986;BME280;56035;37.534;-122.308;2023-02-25T06:28:04;100792.25;;;4.74;100.00
68986;BME280;56035;37.534;-122.308;2023-02-25T06:30:30;100788.53;;;4.81;100.00
68986;BME280;56035;37.534;-122.308;2023-02-25T06:32:57;100773.56;;;4.77;100.00
68986;BME280;56035;37.534;-122.308;2023-02-25T06:35:23;100771.28;;;4.74;100.00
68986;BME280;56035;37.534;-122.308;2023-02-25T06:37:56;100805.06;;;4.73;100.00
68986;BME280;56035;37.534;-122.308;2023-02-25T06:40:23;100815.97;;;4.73;100.00
68986;BME280;56035;37.534;-122.308;2023-02-25T06:42:49;100802.16;;;4.75;100.00
68986;BME280;56035;37.534;-122.308;2023-02-25T06:45:16;100795.19;;;4.72;100.00
68986;BME280;56035;37.534;-122.308;2023-02-25T06:47:42;100782.19;;;4.74;100.00
68986;BME280;56035;37.534;-122.308;2023-02-25T06:50:09;100795.63;;;4.76;100.00
68986;BME280;56035;37.534;-122.308;2023-02-25T06:52:36;100762.47;;;4.79;100.00
68986;BME280;56035;37.534;-122.308;2023-02-25T06:55:03;100756.78;;;4.80;100.00
68986;BME280;56035;37.534;-122.308;2023-02-25T06:57:32;100779.91;;;4.78;100.00
68986;BME280;56035;37.534;-122.308;2023-02-25T06:59:58;100817.25;;;4.77;100.00
68986;BME280;56035;37.534;-122.308;2023-02-25T07:02:25;100819.56;;;4.80;100.00
68986;BME280;56035;37.534;-122.308;2023-02-25T07:04:54;100798.78;;;4.79;100.00
68986;BME280;56035;37.534;-122.308;2023-02-25T07:07:21;100782.22;;;4.81;100.00
68986;BME280;56035;37.534;-122.308;2023-02-25T07:09:47;100775.31;;;4.85;100.00
68986;BME280;56035;37.534;-122.308;2023-02-25T07:12:14;100773.59;;;4.84;100.00
68986;BME280;56035;37.534;-122.308;2023-02-25T07:14:40;100782.66;;;4.84;100.00
68986;BME280;56035;37.534;-122.308;2023-02-25T07:17:06;100789.78;;;4.85;100.00
68986;BME280;56035;37.534;-122.308;2023-02-25T07:19:33;100775.94;;;4.87;100.00
68986;BME280;56035;37.534;-122.308;2023-02-25T07:21:59;100766.91;;;4.86;100.00
68986;BME280;56035;37.534;-122.308;2023-02-25T07:24:25;100780.34;;;4.88;100.00
68986;BME280;56035;37.534;-122.308;2023-02-25T07:26:52;100778.66;;;4.87;100.00
68986;BME280;56035;37.534;-122.308;2023-02-25T07:29:20;100760.41;;;4.87;100.00
68986;BME280;56035;37.534;-122.308;2023-02-25T07:31:47;100755.16;;;4.86;100.00
68986;BME280;56035;37.534;-122.308;2023-02-25T07:34:13;100746.97;;;4.86;100.00
68986;BME280;56035;37.534;-122.308;2023-02-25T07:36:40;100750.75;;;4.85;100.00
68986;BME280;56035;37.534;-122.308;2023-02-25T07:39:08;100768.13;;;4.77;100.00
68986;BME280;56035;37.534;-122.308;2023-02-25T07:41:35;100782.41;;;4.79;100.00
68986;BME280;56035;37.534;-122.308;2023-02-25T07:44:03;100772.97;;;4.82;100.00
68986;BME280;56035;37.534;-122.308;2023-02-25T07:46:29;100739.59;;;4.80;100.00
68986;BME280;56035;37.534;-122.308;2023-02-25T07:48:56;100732.63;;;4.77;100.00
68986;BME280;56035;37.534;-122.308;2023-02-25T07:51:24;100747.75;;;4.73;100.00
68986;BME280;56035;37.534;-122.308;2023-02-25T07:53:52;100757.81;;;4.73;100.00
68986;BME280;56035;37.534;-122.308;2023-02-25T07:56:19;100765.38;;;4.70;100.00
68986;BME280;56035;37.534;-122.308;2023-02-25T07:58:46;100767.47;;;4.68;100.00
68986;BME280;56035;37.534;-122.308;2023-02-25T08:01:20;100767.03;;;4.65;100.00
68986;BME280;56035;37.534;-122.308;2023-02-25T08:03:50;100762.81;;;4.62;100.00
68986;BME280;56035;37.534;-122.308;2023-02-25T08:06:17;100761.59;;;4.65;100.00
68986;BME280;56035;37.534;-122.308;2023-02-25T08:08:43;100750.25;;;4.61;100.00
68986;BME280;56035;37.534;-122.308;2023-02-25T08:11:12;100746.03;;;4.59;100.00
68986;BME280;56035;37.534;-122.308;2023-02-25T08:13:38;100747.69;;;4.60;100.00
68986;BME280;56035;37.534;-122.308;2023-02-25T08:16:10;100758.81;;;4.58;100.00
68986;BME280;56035;37.534;-122.308;2023-02-25T08:18:37;100748.75;;;4.59;100.00
68986;BME280;56035;37.534;-122.308;2023-02-25T08:21:04;100728.56;;;4.53;100.00
68986;BME280;56035;37.534;-122.308;2023-02-25T08:23:30;100740.97;;;4.56;100.00
68986;BME280;56035;37.534;-122.308;2023-02-25T08:25:58;100757.94;;;4.51;100.00
68986;BME280;56035;37.534;-122.308;2023-02-25T08:28:25;100767.81;;;4.52;100.00
68986;BME280;56035;37.534;-122.308;2023-02-25T08:30:52;100747.88;;;4.52;100.00
68986;BME280;56035;37.534;-122.308;2023-02-25T08:33:19;100753.34;;;4.52;100.00
68986;BME280;56035;37.534;-122.308;2023-02-25T08:35:46;100762.34;;;4.52;100.00
68986;BME280;56035;37.534;-122.308;2023-02-25T08:38:12;100762.75;;;4.49;100.00
68986;BME280;56035;37.534;-122.308;2023-02-25T08:40:39;100772.00;;;4.48;100.00
68986;BME280;56035;37.534;-122.308;2023-02-25T08:43:06;100770.09;;;4.49;100.00
68986;BME280;56035;37.534;-122.308;2023-02-25T08:45:32;100771.13;;;4.47;100.00
68986;BME280;56035;37.534;-122.308;2023-02-25T08:47:59;100774.25;;;4.44;100.00
68986;BME280;56035;37.534;-122.308;2023-02-25T08:50:26;100778.69;;;4.45;100.00
68986;BME280;56035;37.534;-122.308;2023-02-25T08:52:52;100780.81;;;4.50;100.00
68986;BME280;56035;37.534;-122.308;2023-02-25T08:55:18;100782.03;;;4.47;100.00
68986;BME280;56035;37.534;-122.308;2023-02-25T08:57:45;100775.56;;;4.49;100.00
68986;BME280;56035;37.534;-122.308;2023-02-25T09:00:12;100772.84;;;4.49;100.00
68986;BME280;56035;37.534;-122.308;2023-02-25T09:02:41;100770.72;;;4.51;100.00
68986;BME280;56035;37.534;-122.308;2023-02-25T09:05:08;100781.66;;;4.51;100.00
68986;BME280;56035;37.534;-122.308;2023-02-25T09:07:34;100787.75;;;4.53;100.00
68986;BME280;56035;37.534;-122.308;2023-02-25T09:10:00;100777.03;;;4.51;100.00
68986;BME280;56035;37.534;-122.308;2023-02-25T09:12:29;100786.25;;;4.50;100.00
68986;BME280;56035;37.534;-122.308;2023-02-25T09:14:55;100791.53;;;4.52;100.00
68986;BME280;56035;37.534;-122.308;2023-02-25T09:17:22;100783.34;;;4.52;100.00
68986;BME280;56035;37.534;-122.308;2023-02-25T09:19:48;100779.16;;;4.56;100.00
68986;BME280;56035;37.534;-122.308;2023-02-25T09:22:14;100781.25;;;4.54;100.00
68986;BME280;56035;37.534;-122.308;2023-02-25T09:24:40;100771.16;;;4.54;100.00
68986;BME280;56035;37.534;-122.308;2023-02-25T09:27:06;100761.31;;;4.53;100.00
68986;BME280;56035;37.534;-122.308;2023-02-25T09:29:37;100746.19;;;4.51;100.00
68986;BME280;56035;37.534;-122.308;2023-02-25T09:32:23;100755.00;;;4.53;100.00
68986;BME280;56035;37.534;-122.308;2023-02-25T09:34:50;100757.94;;;4.51;100.00
68986;BME280;56035;37.534;-122.308;2023-02-25T09:37:17;100753.34;;;4.52;100.00
68986;BME280;56035;37.534;-122.308;2023-02-25T09:39:45;100753.53;;;4.50;100.00
68986;BME280;56035;37.534;-122.308;2023-02-25T09:42:23;100752.69;;;4.50;100.00
68986;BME280;56035;37.534;-122.308;2023-02-25T09:44:55;100740.94;;;4.49;100.00
68986;BME280;56035;37.534;-122.308;2023-02-25T09:47:26;100741.75;;;4.43;100.00
68986;BME280;56035;37.534;-122.308;2023-02-25T09:50:14;100736.94;;;4.45;100.00
68986;BME280;56035;37.534;-122.308;2023-02-25T09:53:12;100735.84;;;4.39;100.00
68986;BME280;56035;37.534;-122.308;2023-02-25T09:55:47;100740.88;;;4.36;100.00
68986;BME280;56035;37.534;-122.308;2023-02-25T09:58:25;100731.44;;;4.38;100.00
68986;BME280;56035;37.534;-122.308;2023-02-25T10:17:48;100738.41;;;4.47;100.00
68986;BME280;56035;37.534;-122.308;2023-02-25T10:25:26;100743.63;;;4.42;100.00
68986;BME280;56035;37.534;-122.308;2023-02-25T10:27:58;100741.91;;;4.35;100.00
68986;BME280;56035;37.534;-122.308;2023-02-25T10:31:12;100738.13;;;4.29;100.00
68986;BME280;56035;37.534;-122.308;2023-02-25T10:33:21;100745.03;;;4.25;100.00
68986;BME280;56035;37.534;-122.308;2023-02-25T10:38:29;100743.72;;;4.21;100.00
68986;BME280;56035;37.534;-122.308;2023-02-25T10:40:57;100752.53;;;4.23;100.00
68986;BME280;56035;37.534;-122.308;2023-02-25T10:43:25;100753.81;;;4.27;100.00
68986;BME280;56035;37.534;-122.308;2023-02-25T10:46:03;100755.50;;;4.28;100.00
68986;BME280;56035;37.534;-122.308;2023-02-25T10:48:31;100756.38;;;4.29;100.00
68986;BME280;56035;37.534;-122.308;2023-02-25T10:51:08;100753.41;;;4.30;100.00
68986;BME280;56035;37.534;-122.308;2023-02-25T10:53:38;100760.56;;;4.31;100.00
68986;BME280;56035;37.534;-122.308;2023-02-25T10:56:06;100759.72;;;4.31;100.00
68986;BME280;56035;37.534;-122.308;2023-02-25T10:58:42;100753.84;;;4.34;100.00
68986;BME280;56035;37.534;-122.308;2023-02-25T11:01:11;100758.06;;;4.36;100.00
68986;BME280;56035;37.534;-122.308;2023-02-25T11:03:52;100772.38;;;4.38;100.00
68986;BME280;56035;37.534;-122.308;2023-02-25T11:06:28;100770.25;;;4.40;100.00
68986;BME280;56035;37.534;-122.308;2023-02-25T11:08:57;100764.63;;;4.42;100.00
68986;BME280;56035;37.534;-122.308;2023-02-25T11:11:26;100756.84;;;4.39;100.00
68986;BME280;56035;37.534;-122.308;2023-02-25T11:14:16;100756.44;;;4.42;100.00
68986;BME280;56035;37.534;-122.308;2023-02-25T11:16:44;100767.13;;;4.43;100.00
68986;BME280;56035;37.534;-122.308;2023-02-25T11:19:19;100754.97;;;4.46;100.00
68986;BME280;56035;37.534;-122.308;2023-02-25T11:21:47;100760.63;;;4.44;100.00
68986;BME280;56035;37.534;-122.308;2023-02-25T11:24:16;100759.19;;;4.49;100.00
68986;BME280;56035;37.534;-122.308;2023-02-25T11:26:47;100751.00;;;4.49;100.00
68986;BME280;56035;37.534;-122.308;2023-02-25T11:29:21;100762.09;;;4.47;100.00
68986;BME280;56035;37.534;-122.308;2023-02-25T11:31:53;100761.94;;;4.49;100.00
68986;BME280;56035;37.534;-122.308;2023-02-25T11:34:29;100760.63;;;4.44;100.00
68986;BME280;56035;37.534;-122.308;2023-02-25T11:36:56;100772.84;;;4.49;100.00
68986;BME280;56035;37.534;-122.308;2023-02-25T11:39:54;100781.25;;;4.54;100.00
68986;BME280;56035;37.534;-122.308;2023-02-25T11:42:24;100776.84;;;4.53;100.00
68986;BME280;56035;37.534;-122.308;2023-02-25T11:45:02;100777.28;;;4.56;100.00
68986;BME280;56035;37.534;-122.308;2023-02-25T11:47:35;100780.22;;;4.55;100.00
68986;BME280;56035;37.534;-122.308;2023-02-25T11:52:50;100793.88;;;4.55;100.00
68986;BME280;56035;37.534;-122.308;2023-02-25T11:55:27;100800.16;;;4.55;100.00
68986;BME280;56035;37.534;-122.308;2023-02-25T12:10:11;100792.16;;;4.54;100.00
68986;BME280;56035;37.534;-122.308;2023-02-25T12:21:50;100794.25;;;4.52;100.00
68986;BME280;56035;37.534;-122.308;2023-02-25T12:27:06;100805.63;;;4.55;100.00
68986;BME280;56035;37.534;-122.308;2023-02-25T12:32:58;100809.38;;;4.54;100.00
68986;BME280;56035;37.534;-122.308;2023-02-25T12:44:45;100820.75;;;4.58;100.00
68986;BME280;56035;37.534;-122.308;2023-02-25T13:04:58;100833.38;;;4.65;100.00
68986;BME280;56035;37.534;-122.308;2023-02-25T13:07:35;100834.00;;;4.67;100.00
68986;BME280;56035;37.534;-122.308;2023-02-25T13:10:12;100838.44;;;4.68;100.00
68986;BME280;56035;37.534;-122.308;2023-02-25T13:12:44;100833.59;;;4.70;100.00
68986;BME280;56035;37.534;-122.308;2023-02-25T13:18:22;100847.22;;;4.70;100.00
68986;BME280;56035;37.534;-122.308;2023-02-25T13:23:53;100852.69;;;4.70;100.00
68986;BME280;56035;37.534;-122.308;2023-02-25T13:34:48;100853.31;;;4.66;100.00
68986;BME280;56035;37.534;-122.308;2023-02-25T13:40:20;100858.50;;;4.61;100.00
68986;BME280;56035;37.534;-122.308;2023-02-25T13:51:39;100867.13;;;4.58;100.00
68986;BME280;56035;37.534;-122.308;2023-02-25T13:54:29;100861.69;;;4.58;100.00
68986;BME280;56035;37.534;-122.308;2023-02-25T14:00:12;100863.13;;;4.60;100.00
68986;BME280;56035;37.534;-122.308;2023-02-25T14:09:30;100861.50;;;4.66;100.00
68986;BME280;56035;37.534;-122.308;2023-02-25T14:11:48;100863.56;;;4.64;100.00
68986;BME280;56035;37.534;-122.308;2023-02-25T14:14:51;100864.63;;;4.63;100.00
68986;BME280;56035;37.534;-122.308;2023-02-25T14:17:41;100867.78;;;4.66;100.00
68986;BME280;56035;37.534;-122.308;2023-02-25T14:34:35;100883.59;;;4.71;100.00
68986;BME280;56035;37.534;-122.308;2023-02-25T14:37:20;100901.03;;;4.77;100.00
68986;BME280;56035;37.534;-122.308;2023-02-25T14:42:58;100888.88;;;4.79;100.00
68986;BME280;56035;37.534;-122.308;2023-02-25T14:48:08;100879.63;;;4.80;100.00
68986;BME280;56035;37.534;-122.308;2023-02-25T14:51:18;100876.28;;;4.78;100.00
68986;BME280;56035;37.534;-122.308;2023-02-25T15:07:19;100905.16;;;4.66;100.00
68986;BME280;56035;37.534;-122.308;2023-02-25T15:19:42;100915.88;;;4.67;100.00
68986;BME280;56035;37.534;-122.308;2023-02-25T15:21:45;100921.59;;;4.73;100.00
68986;BME280;56035;37.534;-122.308;2023-02-25T15:24:35;100927.47;;;4.76;100.00
68986;BME280;56035;37.534;-122.308;2023-02-25T15:30:03;100940.72;;;4.79;100.00
68986;BME280;56035;37.534;-122.308;2023-02-25T15:32:48;100932.34;;;4.81;100.00
68986;BME280;56035;37.534;-122.308;2023-02-25T15:35:21;100938.84;;;4.80;100.00
68986;BME280;56035;37.534;-122.308;2023-02-25T15:42:50;100953.75;;;4.84;100.00
68986;BME280;56035;37.534;-122.308;2023-02-25T15:56:42;100970.84;;;4.92;100.00